North Branford, Connecticut
Current Conditions -  °F | °C
As of 6:53 AM on Sunday 21 Dec 2014 (Local Time) from KHVN Reporting Station
Haze Haze  
Wind Chill: 27°   Ceiling: 1600
Heat Index: 35°   Visibility: 6mi
Dew Point: 29°   Wind: 12mph
Humidity: 78%   Direction: 10°N
Pressure: 30.28"   Gusts: NA
Location:  41.33°N, 72.77°W
Report Text: KHVN 211153Z 01010KT 6SM HZ OVC016 02/M02 A3028 RMK AO2 SLP253 60000 T00171017 10017 20011 53006
Loading
Personal Weather Stations






























Interactive Weather Map New forecast layout! Learn more

10-Day Weather Forecast

Advertisements
Track Severe Weather on mobile